Time;durP1;ratioP1;P1;durP2;ratioP2;P2;SDS_P1;SDS_P2;PMS_P1;PMS_P2;Temp;Humidity;BMP_temperature;BMP_pressure;BME280_temperature;BME280_humidity;BME280_pressure;Samples;Min_cycle;Max_cycle;Signal;HPM_P1;HPM_P2
2023/06/23 00:00:53;;;;;;;3.33;2.08;;;;;;;;;;4999369;28;20805;-85
2023/06/23 00:03:19;;;;;;;3.40;2.05;;;;;;;;;;4999790;28;20101;-86
2023/06/23 00:05:45;;;;;;;3.17;1.85;;;;;;;;;;4995103;28;20448;-84
2023/06/23 00:08:11;;;;;;;3.17;2.17;;;;;;;;;;5008021;28;20030;-86
2023/06/23 00:10:37;;;;;;;2.20;2.00;;;;;;;;;;5000980;28;20030;-86
2023/06/23 00:13:03;;;;;;;4.13;2.28;;;;;;;;;;4998470;28;20069;-84
2023/06/23 00:15:29;;;;;;;2.60;2.05;;;;;;;;;;4982828;28;20544;-85
2023/06/23 00:17:55;;;;;;;3.15;1.90;;;;;;;;;;5007650;28;20137;-85
2023/06/23 00:20:22;;;;;;;2.80;1.95;;;;;;;;;;4989325;28;20026;-84
2023/06/23 00:22:48;;;;;;;2.70;1.95;;;;;;;;;;4987448;28;20022;-85
2023/06/23 00:25:18;;;;;;;2.80;1.90;;;;;;;;;;4997672;28;20094;-86
2023/06/23 00:27:47;;;;;;;3.10;2.00;;;;;;;;;;4988665;28;20038;-85
2023/06/23 00:30:13;;;;;;;3.35;2.15;;;;;;;;;;5006433;28;20022;-85
2023/06/23 00:32:40;;;;;;;2.42;1.92;;;;;;;;;;4999274;28;20148;-85
2023/06/23 00:35:07;;;;;;;2.70;1.75;;;;;;;;;;4997209;28;20540;-86
2023/06/23 00:37:33;;;;;;;4.30;1.60;;;;;;;;;;5007738;28;20030;-84
2023/06/23 00:40:10;;;;;;;2.33;1.70;;;;;;;;;;4982078;28;20100;-85
2023/06/23 00:42:46;;;;;;;2.05;1.58;;;;;;;;;;4995040;28;20037;-84
2023/06/23 00:45:13;;;;;;;2.83;1.77;;;;;;;;;;4989674;28;20029;-85
2023/06/23 00:47:39;;;;;;;2.95;2.00;;;;;;;;;;4997528;28;20036;-85
2023/06/23 00:50:08;;;;;;;1.80;1.70;;;;;;;;;;5005641;28;20033;-84
2023/06/23 00:52:34;;;;;;;1.92;1.70;;;;;;;;;;5002061;28;20058;-84
2023/06/23 00:55:03;;;;;;;2.05;1.52;;;;;;;;;;4997765;28;20030;-81
2023/06/23 00:57:33;;;;;;;1.92;1.70;;;;;;;;;;4994936;28;20481;-80
2023/06/23 00:59:59;;;;;;;2.13;1.67;;;;;;;;;;5000483;28;20084;-84
2023/06/23 01:02:27;;;;;;;2.58;1.95;;;;;;;;;;5013998;28;20113;-82
2023/06/23 01:04:53;;;;;;;3.20;1.80;;;;;;;;;;5007579;28;20065;-84
2023/06/23 01:07:32;;;;;;;3.90;1.77;;;;;;;;;;5013366;28;20041;-83
2023/06/23 01:10:06;;;;;;;3.08;1.85;;;;;;;;;;4993583;28;20034;-82
2023/06/23 01:12:39;;;;;;;2.72;1.90;;;;;;;;;;4981168;28;20045;-83
2023/06/23 01:15:11;;;;;;;2.10;1.67;;;;;;;;;;4996137;28;20049;-83
2023/06/23 01:17:42;;;;;;;2.13;1.58;;;;;;;;;;5009024;28;20037;-82
2023/06/23 01:20:21;;;;;;;3.30;1.80;;;;;;;;;;5017844;28;20030;-83
2023/06/23 01:22:53;;;;;;;2.40;1.90;;;;;;;;;;5002010;28;20038;-82
2023/06/23 01:25:33;;;;;;;3.88;2.10;;;;;;;;;;5000200;28;20018;-82
2023/06/23 01:28:18;;;;;;;2.70;2.10;;;;;;;;;;4994653;28;20058;-82
2023/06/23 01:30:45;;;;;;;1.90;1.60;;;;;;;;;;5004670;28;20026;-82
2023/06/23 01:33:15;;;;;;;1.88;1.65;;;;;;;;;;5003241;28;20064;-83
2023/06/23 01:35:44;;;;;;;3.40;1.85;;;;;;;;;;5007019;28;20046;-82
2023/06/23 01:38:22;;;;;;;2.35;2.00;;;;;;;;;;4984989;28;20033;-83
2023/06/23 01:40:54;;;;;;;2.50;1.63;;;;;;;;;;5009972;28;20034;-82
2023/06/23 01:43:29;;;;;;;3.88;1.73;;;;;;;;;;5004034;28;20149;-82
2023/06/23 01:45:55;;;;;;;2.67;2.00;;;;;;;;;;5008614;28;20420;-82
2023/06/23 01:48:21;;;;;;;1.58;1.38;;;;;;;;;;5005262;28;20037;-82
2023/06/23 01:50:47;;;;;;;2.15;1.70;;;;;;;;;;4995214;28;20041;-82
2023/06/23 01:53:14;;;;;;;1.70;1.58;;;;;;;;;;5004063;28;20053;-81
2023/06/23 01:55:40;;;;;;;2.20;1.83;;;;;;;;;;5003637;28;20604;-81
2023/06/23 01:58:07;;;;;;;3.78;1.95;;;;;;;;;;5008144;28;20168;-83
2023/06/23 02:00:33;;;;;;;1.98;1.63;;;;;;;;;;5007582;28;20033;-82
2023/06/23 02:03:00;;;;;;;2.88;1.42;;;;;;;;;;5008028;28;20497;-82
2023/06/23 02:05:27;;;;;;;1.98;1.70;;;;;;;;;;5007134;28;20045;-81
2023/06/23 02:07:54;;;;;;;1.90;1.50;;;;;;;;;;5010702;28;20160;-82
2023/06/23 02:10:21;;;;;;;2.92;2.00;;;;;;;;;;5003513;28;20540;-81
2023/06/23 02:12:48;;;;;;;3.17;1.52;;;;;;;;;;5004545;28;20034;-82
2023/06/23 02:15:15;;;;;;;1.83;1.60;;;;;;;;;;5000471;28;20026;-82
2023/06/23 02:17:42;;;;;;;1.70;1.40;;;;;;;;;;5009151;28;20384;-82
2023/06/23 02:20:16;;;;;;;2.03;1.60;;;;;;;;;;5008234;28;20540;-81
2023/06/23 02:22:46;;;;;;;1.92;1.63;;;;;;;;;;4995883;28;20031;-81
2023/06/23 02:25:12;;;;;;;3.15;2.00;;;;;;;;;;4993659;28;20041;-82
2023/06/23 02:27:38;;;;;;;2.22;1.52;;;;;;;;;;5009928;28;20037;-82
2023/06/23 02:30:05;;;;;;;3.92;2.20;;;;;;;;;;5005895;28;20065;-82
2023/06/23 02:32:31;;;;;;;2.13;1.92;;;;;;;;;;5000483;28;20034;-83
2023/06/23 02:34:57;;;;;;;1.92;1.42;;;;;;;;;;5002047;28;20030;-81
2023/06/23 02:37:24;;;;;;;2.15;1.40;;;;;;;;;;5009807;28;20034;-83
2023/06/23 02:39:54;;;;;;;2.15;1.48;;;;;;;;;;5006078;28;20022;-82
2023/06/23 02:42:22;;;;;;;1.58;1.48;;;;;;;;;;5002403;28;20033;-82
2023/06/23 02:44:55;;;;;;;2.50;1.55;;;;;;;;;;4997962;28;20031;-81
2023/06/23 02:47:22;;;;;;;1.90;1.30;;;;;;;;;;5000282;28;20027;-81
2023/06/23 02:49:49;;;;;;;1.73;1.55;;;;;;;;;;4985262;28;20058;-82
2023/06/23 02:52:16;;;;;;;2.58;1.40;;;;;;;;;;4995807;28;20026;-82
2023/06/23 02:54:44;;;;;;;2.22;1.30;;;;;;;;;;5004237;28;20034;-81
2023/06/23 02:57:15;;;;;;;3.30;1.42;;;;;;;;;;4988087;28;20040;-82
2023/06/23 02:59:42;;;;;;;2.50;1.40;;;;;;;;;;4996072;28;20076;-80
2023/06/23 03:02:10;;;;;;;1.30;1.13;;;;;;;;;;5003362;28;20041;-81
2023/06/23 03:04:39;;;;;;;2.25;1.73;;;;;;;;;;5005758;28;20096;-81
2023/06/23 03:07:06;;;;;;;1.90;1.50;;;;;;;;;;5001276;28;20033;-81
2023/06/23 03:09:33;;;;;;;1.77;1.35;;;;;;;;;;4997332;28;20045;-80
2023/06/23 03:11:59;;;;;;;1.55;1.30;;;;;;;;;;4996848;28;20034;-80
2023/06/23 03:14:26;;;;;;;2.05;1.55;;;;;;;;;;4991577;28;20049;-81
2023/06/23 03:16:59;;;;;;;1.90;1.70;;;;;;;;;;5005471;28;20443;-81
2023/06/23 03:19:31;;;;;;;1.63;1.45;;;;;;;;;;4998815;28;20030;-81
2023/06/23 03:22:16;;;;;;;1.45;1.20;;;;;;;;;;4983753;28;20700;-79
2023/06/23 03:24:43;;;;;;;2.55;1.60;;;;;;;;;;4994515;28;20477;-80
2023/06/23 03:27:10;;;;;;;2.38;1.35;;;;;;;;;;5001333;28;20048;-80
2023/06/23 03:29:40;;;;;;;1.83;1.38;;;;;;;;;;5000911;28;20026;-79
2023/06/23 03:32:07;;;;;;;2.17;1.40;;;;;;;;;;4992334;28;20421;-80
2023/06/23 03:34:41;;;;;;;1.67;1.42;;;;;;;;;;5007870;28;20049;-81
2023/06/23 03:37:08;;;;;;;1.60;1.35;;;;;;;;;;4997120;28;20032;-74
2023/06/23 03:39:40;;;;;;;1.70;1.45;;;;;;;;;;4990447;28;20026;-75
2023/06/23 03:42:06;;;;;;;1.67;1.45;;;;;;;;;;4993387;28;20038;-76
2023/06/23 03:44:36;;;;;;;1.52;1.33;;;;;;;;;;4998857;28;20033;-77
2023/06/23 03:47:05;;;;;;;1.67;1.40;;;;;;;;;;4993826;28;20026;-77
2023/06/23 03:49:33;;;;;;;1.85;1.70;;;;;;;;;;5002277;28;20073;-77
2023/06/23 03:52:04;;;;;;;1.52;1.30;;;;;;;;;;5009081;28;20022;-76
2023/06/23 03:54:31;;;;;;;1.50;1.40;;;;;;;;;;5009082;28;20018;-77
2023/06/23 03:56:57;;;;;;;3.50;1.48;;;;;;;;;;4992951;28;20038;-76
2023/06/23 03:59:26;;;;;;;1.27;1.17;;;;;;;;;;5000120;28;20045;-77
2023/06/23 04:01:52;;;;;;;1.70;1.50;;;;;;;;;;4996093;28;20117;-76
2023/06/23 04:04:21;;;;;;;2.05;1.55;;;;;;;;;;5009209;28;20117;-77
2023/06/23 04:06:48;;;;;;;1.67;1.27;;;;;;;;;;5000035;28;20042;-76
2023/06/23 04:09:15;;;;;;;1.63;1.35;;;;;;;;;;5003695;28;20030;-77
2023/06/23 04:11:42;;;;;;;1.40;1.30;;;;;;;;;;5005303;28;20453;-76
2023/06/23 04:14:09;;;;;;;1.73;1.38;;;;;;;;;;5009162;28;20079;-77
2023/06/23 04:16:37;;;;;;;1.83;1.45;;;;;;;;;;5000082;28;20038;-76
2023/06/23 04:19:03;;;;;;;2.22;1.60;;;;;;;;;;5004502;28;20481;-76
2023/06/23 04:21:30;;;;;;;2.00;1.55;;;;;;;;;;5008938;28;20117;-76
2023/06/23 04:23:57;;;;;;;1.85;1.50;;;;;;;;;;5008926;28;20030;-76
2023/06/23 04:26:23;;;;;;;1.58;1.27;;;;;;;;;;5008805;28;20021;-77
2023/06/23 04:28:50;;;;;;;2.20;1.30;;;;;;;;;;5005250;28;20033;-76
2023/06/23 04:31:18;;;;;;;1.35;1.25;;;;;;;;;;5008950;28;20401;-76
2023/06/23 04:33:44;;;;;;;1.75;1.30;;;;;;;;;;4998799;28;20057;-78
2023/06/23 04:36:12;;;;;;;2.35;1.50;;;;;;;;;;5005430;28;20029;-78
2023/06/23 04:38:40;;;;;;;1.30;1.13;;;;;;;;;;4994702;28;20082;-77
2023/06/23 04:41:10;;;;;;;1.30;1.20;;;;;;;;;;4983114;28;20117;-77
2023/06/23 04:43:39;;;;;;;2.97;1.38;;;;;;;;;;4996467;28;20687;-76
2023/06/23 04:46:11;;;;;;;2.75;1.70;;;;;;;;;;5006886;28;20042;-76
2023/06/23 04:48:40;;;;;;;1.23;1.13;;;;;;;;;;5000211;28;20053;-75
2023/06/23 04:51:07;;;;;;;2.10;1.50;;;;;;;;;;5002914;28;20038;-77
2023/06/23 04:53:37;;;;;;;2.22;1.63;;;;;;;;;;5002643;28;20018;-76
2023/06/23 04:56:05;;;;;;;2.05;1.45;;;;;;;;;;5000195;28;20436;-76
2023/06/23 04:58:33;;;;;;;1.60;1.50;;;;;;;;;;5005136;28;20504;-75
2023/06/23 05:01:00;;;;;;;1.20;1.10;;;;;;;;;;5006608;28;20040;-76
2023/06/23 05:03:27;;;;;;;1.25;1.10;;;;;;;;;;4998707;28;20026;-75
2023/06/23 05:05:55;;;;;;;1.23;1.13;;;;;;;;;;5006994;28;20493;-76
2023/06/23 05:08:26;;;;;;;1.73;1.52;;;;;;;;;;5002652;28;20036;-76
2023/06/23 05:10:53;;;;;;;1.38;1.27;;;;;;;;;;5003223;28;20042;-75
2023/06/23 05:13:19;;;;;;;1.63;1.33;;;;;;;;;;4996697;28;20046;-76
2023/06/23 05:15:46;;;;;;;2.30;1.45;;;;;;;;;;5005884;28;20033;-75
2023/06/23 05:18:13;;;;;;;1.20;1.10;;;;;;;;;;4994964;28;20062;-76
2023/06/23 05:20:40;;;;;;;2.15;1.67;;;;;;;;;;4997588;28;20416;-76
2023/06/23 05:23:09;;;;;;;2.22;1.50;;;;;;;;;;4995785;28;20025;-76
2023/06/23 05:25:38;;;;;;;1.48;1.27;;;;;;;;;;5007868;28;20061;-76
2023/06/23 05:28:06;;;;;;;2.20;1.85;;;;;;;;;;5007963;28;20037;-75
2023/06/23 05:30:39;;;;;;;1.95;1.38;;;;;;;;;;4995031;28;20137;-76
2023/06/23 05:33:08;;;;;;;1.48;1.27;;;;;;;;;;4995518;28;20722;-76
2023/06/23 05:35:35;;;;;;;2.35;1.50;;;;;;;;;;5005447;28;20034;-75
2023/06/23 05:38:02;;;;;;;2.00;1.40;;;;;;;;;;5009605;28;20060;-76
2023/06/23 05:40:28;;;;;;;1.67;1.30;;;;;;;;;;5002048;28;20113;-76
2023/06/23 05:42:54;;;;;;;1.27;1.17;;;;;;;;;;4988666;28;20084;-77
2023/06/23 05:45:20;;;;;;;1.70;1.30;;;;;;;;;;5003239;28;20117;-76
2023/06/23 05:47:59;;;;;;;1.23;1.13;;;;;;;;;;4994037;28;20076;-79
2023/06/23 05:50:32;;;;;;;2.28;1.35;;;;;;;;;;5003270;28;20030;-85
2023/06/23 05:53:06;;;;;;;1.33;1.20;;;;;;;;;;4999643;28;20068;-81
2023/06/23 05:55:35;;;;;;;2.17;1.52;;;;;;;;;;5006284;28;21269;-90
2023/06/23 05:58:03;;;;;;;2.42;1.30;;;;;;;;;;4986411;28;20153;-81
2023/06/23 06:00:32;;;;;;;1.60;1.15;;;;;;;;;;5001253;28;20091;-81
2023/06/23 06:03:01;;;;;;;2.13;1.33;;;;;;;;;;5001000;28;20836;-79
2023/06/23 06:05:28;;;;;;;1.45;1.25;;;;;;;;;;5004924;28;20608;-80
2023/06/23 06:07:56;;;;;;;1.67;1.10;;;;;;;;;;5000407;28;20110;-80
2023/06/23 06:10:23;;;;;;;2.08;1.23;;;;;;;;;;5002221;28;20023;-83
2023/06/23 06:12:50;;;;;;;2.05;1.45;;;;;;;;;;5003277;28;20366;-80
2023/06/23 06:15:17;;;;;;;2.15;1.48;;;;;;;;;;4993603;28;20026;-81
2023/06/23 06:17:43;;;;;;;2.08;1.70;;;;;;;;;;5004910;28;20084;-81
2023/06/23 06:20:10;;;;;;;2.15;1.40;;;;;;;;;;5006530;28;20032;-81
2023/06/23 06:22:38;;;;;;;1.52;1.30;;;;;;;;;;4974079;28;20022;-83
2023/06/23 06:25:04;;;;;;;2.38;1.65;;;;;;;;;;5004543;28;20534;-80
2023/06/23 06:27:31;;;;;;;2.22;1.35;;;;;;;;;;5002558;28;20465;-84
2023/06/23 06:29:58;;;;;;;1.40;1.30;;;;;;;;;;5010195;28;20034;-87
2023/06/23 06:32:25;;;;;;;2.03;1.40;;;;;;;;;;4996141;28;20026;-81
2023/06/23 06:34:52;;;;;;;2.67;1.77;;;;;;;;;;5007961;28;20052;-82
2023/06/23 06:37:19;;;;;;;4.47;1.48;;;;;;;;;;5003222;28;20026;-83
2023/06/23 06:39:45;;;;;;;2.10;1.48;;;;;;;;;;4995030;28;20038;-88
2023/06/23 06:42:12;;;;;;;1.67;1.38;;;;;;;;;;5005099;28;20022;-80
2023/06/23 06:44:38;;;;;;;1.60;1.50;;;;;;;;;;4998165;28;20032;-79
2023/06/23 06:47:05;;;;;;;2.13;1.38;;;;;;;;;;5003464;28;20121;-77
2023/06/23 06:49:31;;;;;;;1.52;1.30;;;;;;;;;;4992146;28;20465;-81
2023/06/23 06:51:59;;;;;;;1.38;1.20;;;;;;;;;;5003374;28;20076;-76
2023/06/23 06:54:26;;;;;;;1.70;1.40;;;;;;;;;;5006155;28;20027;-82
2023/06/23 06:56:53;;;;;;;3.65;1.50;;;;;;;;;;5001878;28;20396;-89
2023/06/23 06:59:19;;;;;;;1.30;1.05;;;;;;;;;;4998310;28;20030;-90
2023/06/23 07:01:45;;;;;;;1.15;1.05;;;;;;;;;;5001309;28;21068;-91
2023/06/23 07:04:11;;;;;;;1.70;1.23;;;;;;;;;;5012447;28;20384;-90
2023/06/23 07:06:37;;;;;;;2.60;1.60;;;;;;;;;;5006687;28;20046;-90
2023/06/23 07:09:04;;;;;;;2.17;1.38;;;;;;;;;;5005537;28;20029;-90
2023/06/23 07:11:31;;;;;;;1.65;1.38;;;;;;;;;;4999701;28;20473;-89
2023/06/23 07:13:57;;;;;;;1.88;1.25;;;;;;;;;;5011186;28;20018;-90
2023/06/23 07:16:24;;;;;;;1.83;1.23;;;;;;;;;;5007587;28;20026;-91
2023/06/23 07:18:50;;;;;;;4.90;1.48;;;;;;;;;;5004680;28;20030;-90
2023/06/23 07:21:16;;;;;;;1.65;1.35;;;;;;;;;;5010049;28;20030;-91
2023/06/23 07:23:42;;;;;;;2.17;1.40;;;;;;;;;;5011650;28;20025;-90
2023/06/23 07:26:08;;;;;;;2.85;1.83;;;;;;;;;;5005505;28;20026;-89
2023/06/23 07:28:34;;;;;;;2.30;1.55;;;;;;;;;;4994677;28;20088;-89
2023/06/23 07:31:00;;;;;;;4.22;1.95;;;;;;;;;;5008569;28;20025;-87
2023/06/23 07:33:26;;;;;;;2.58;1.70;;;;;;;;;;5011448;28;20018;-89
2023/06/23 07:35:57;;;;;;;2.63;1.75;;;;;;;;;;5003707;28;20035;-91
2023/06/23 07:38:23;;;;;;;;;;;;;;;;;;5001755;28;20112;-89
2023/06/23 07:40:49;;;;;;;3.65;1.48;;;;;;;;;;5011714;28;19952;-89
2023/06/23 07:43:15;;;;;;;1.63;1.45;;;;;;;;;;5010348;28;20034;-90
2023/06/23 07:45:41;;;;;;;3.75;1.58;;;;;;;;;;5001499;28;20030;-87
2023/06/23 07:48:07;;;;;;;2.83;1.85;;;;;;;;;;4989964;28;20225;-90
2023/06/23 07:50:33;;;;;;;2.40;1.88;;;;;;;;;;5010594;28;20759;-88
2023/06/23 07:52:59;;;;;;;1.42;1.25;;;;;;;;;;4997560;28;20034;-90
2023/06/23 07:55:25;;;;;;;2.53;1.60;;;;;;;;;;4992255;28;20014;-91
2023/06/23 07:57:51;;;;;;;1.60;1.20;;;;;;;;;;5008935;28;20022;-88
2023/06/23 08:00:18;;;;;;;2.92;1.55;;;;;;;;;;4996079;28;20501;-90
2023/06/23 08:02:44;;;;;;;2.00;1.33;;;;;;;;;;4996982;28;20022;-88
2023/06/23 08:05:10;;;;;;;3.17;2.40;;;;;;;;;;4993434;28;20039;-90
2023/06/23 08:07:36;;;;;;;1.40;1.30;;;;;;;;;;4982841;28;20080;-88
2023/06/23 08:10:03;;;;;;;2.67;1.40;;;;;;;;;;5002538;28;20381;-89
2023/06/23 08:12:29;;;;;;;1.45;1.35;;;;;;;;;;4984372;28;20030;-89
2023/06/23 08:14:55;;;;;;;1.70;1.40;;;;;;;;;;4998079;28;20033;-90
2023/06/23 08:17:24;;;;;;;3.72;1.63;;;;;;;;;;4979927;28;20088;-89
2023/06/23 08:19:50;;;;;;;1.95;1.58;;;;;;;;;;5002184;28;20029;-89
2023/06/23 08:22:16;;;;;;;2.25;1.55;;;;;;;;;;5000850;28;20014;-89
2023/06/23 08:24:42;;;;;;;2.05;1.58;;;;;;;;;;5001346;28;20034;-89
2023/06/23 08:27:08;;;;;;;2.15;1.67;;;;;;;;;;5009518;28;20481;-87
2023/06/23 08:29:37;;;;;;;1.27;1.17;;;;;;;;;;5002668;28;20401;-87
2023/06/23 08:32:03;;;;;;;1.70;1.60;;;;;;;;;;5007284;28;20022;-91
2023/06/23 08:34:29;;;;;;;1.70;1.60;;;;;;;;;;4999514;28;20038;-89
2023/06/23 08:36:55;;;;;;;1.77;1.40;;;;;;;;;;4999022;28;20033;-88
2023/06/23 08:39:21;;;;;;;1.35;1.25;;;;;;;;;;4981778;28;20022;-85
2023/06/23 08:41:47;;;;;;;3.22;1.92;;;;;;;;;;4993827;28;20077;-89
2023/06/23 08:44:14;;;;;;;2.45;1.60;;;;;;;;;;5000754;28;20109;-86
2023/06/23 08:46:41;;;;;;;3.22;2.10;;;;;;;;;;5000628;28;20023;-90
2023/06/23 08:49:09;;;;;;;2.03;1.83;;;;;;;;;;5000357;28;20565;-88
2023/06/23 08:51:35;;;;;;;3.15;1.60;;;;;;;;;;4996389;28;20038;-88
2023/06/23 08:54:01;;;;;;;1.63;1.50;;;;;;;;;;4997246;28;20077;-89
2023/06/23 08:56:27;;;;;;;2.22;1.65;;;;;;;;;;4998120;28;20025;-89
2023/06/23 08:58:53;;;;;;;1.50;1.40;;;;;;;;;;4999697;28;20061;-91
2023/06/23 09:01:19;;;;;;;3.33;1.80;;;;;;;;;;4995979;28;20366;-85
2023/06/23 09:03:45;;;;;;;2.85;2.13;;;;;;;;;;4995913;28;20478;-83
2023/06/23 09:06:11;;;;;;;2.65;1.80;;;;;;;;;;4998111;28;20105;-88
2023/06/23 09:08:37;;;;;;;2.60;1.85;;;;;;;;;;4998359;28;20095;-86
2023/06/23 09:11:03;;;;;;;2.88;1.77;;;;;;;;;;5002844;28;20030;-82
2023/06/23 09:13:36;;;;;;;1.48;1.38;;;;;;;;;;4993531;28;20034;-87
2023/06/23 09:16:02;;;;;;;2.38;1.58;;;;;;;;;;4989499;28;20037;-87
2023/06/23 09:18:30;;;;;;;2.47;1.75;;;;;;;;;;5007733;28;20041;-88
2023/06/23 09:20:56;;;;;;;2.22;1.95;;;;;;;;;;4995413;28;20032;-90
2023/06/23 09:23:23;;;;;;;2.88;1.90;;;;;;;;;;5006754;28;20029;-90
2023/06/23 09:25:56;;;;;;;1.67;1.58;;;;;;;;;;4990869;28;20027;-85
2023/06/23 09:28:34;;;;;;;1.98;1.77;;;;;;;;;;5008254;28;20029;-86
2023/06/23 09:31:07;;;;;;;3.47;2.00;;;;;;;;;;4990419;28;20058;-83
2023/06/23 09:33:33;;;;;;;2.33;2.00;;;;;;;;;;5000504;28;20087;-88
2023/06/23 09:36:13;;;;;;;3.10;2.38;;;;;;;;;;5001011;28;20561;-89
2023/06/23 09:38:39;;;;;;;5.40;2.03;;;;;;;;;;4999552;28;20033;-91
2023/06/23 09:41:09;;;;;;;2.70;1.90;;;;;;;;;;4988976;28;20027;-87
2023/06/23 09:43:45;;;;;;;2.53;1.77;;;;;;;;;;4988144;28;20034;-88
2023/06/23 09:46:13;;;;;;;2.00;1.70;;;;;;;;;;4998828;28;20112;-85
2023/06/23 09:48:40;;;;;;;2.80;2.13;;;;;;;;;;4993995;28;20122;-86
2023/06/23 09:51:06;;;;;;;2.28;1.98;;;;;;;;;;5007619;28;20040;-89
2023/06/23 09:53:38;;;;;;;2.45;2.22;;;;;;;;;;5007882;28;20032;-86
2023/06/23 09:56:05;;;;;;;3.17;2.17;;;;;;;;;;5007330;28;20061;-84
2023/06/23 09:58:32;;;;;;;3.97;2.33;;;;;;;;;;5002695;28;20481;-86
2023/06/23 10:01:02;;;;;;;3.53;2.10;;;;;;;;;;5009981;28;20030;-85
2023/06/23 10:03:29;;;;;;;4.47;2.00;;;;;;;;;;5011217;28;20018;-85
2023/06/23 10:05:56;;;;;;;3.22;2.28;;;;;;;;;;5011514;28;20054;-85
2023/06/23 10:08:22;;;;;;;2.63;2.25;;;;;;;;;;5006763;28;20018;-84
2023/06/23 10:10:48;;;;;;;2.92;2.13;;;;;;;;;;5003916;28;20612;-84
2023/06/23 10:13:14;;;;;;;2.58;2.10;;;;;;;;;;5010423;28;20030;-85
2023/06/23 10:15:42;;;;;;;2.55;2.20;;;;;;;;;;4993650;28;20054;-85
2023/06/23 10:18:11;;;;;;;2.55;2.08;;;;;;;;;;5002277;28;20061;-85
2023/06/23 10:20:37;;;;;;;3.33;2.17;;;;;;;;;;5007541;28;20030;-85
2023/06/23 10:23:04;;;;;;;3.40;2.22;;;;;;;;;;4991650;28;20030;-86
2023/06/23 10:25:30;;;;;;;3.22;2.40;;;;;;;;;;4991374;28;20033;-85
2023/06/23 10:28:00;;;;;;;2.95;2.20;;;;;;;;;;4991156;28;20030;-85
2023/06/23 10:30:28;;;;;;;2.75;2.08;;;;;;;;;;4997261;28;20053;-86
2023/06/23 10:32:55;;;;;;;3.75;2.17;;;;;;;;;;5011181;28;20034;-85
2023/06/23 10:35:21;;;;;;;3.10;2.15;;;;;;;;;;5010664;28;20444;-84
2023/06/23 10:37:57;;;;;;;2.58;2.10;;;;;;;;;;5010985;28;20113;-85
2023/06/23 10:40:24;;;;;;;4.00;2.30;;;;;;;;;;5006832;28;20026;-87
2023/06/23 10:42:51;;;;;;;2.00;1.73;;;;;;;;;;4992626;28;20489;-87
2023/06/23 10:45:17;;;;;;;7.10;2.25;;;;;;;;;;5008899;28;20021;-85
2023/06/23 10:47:43;;;;;;;3.17;2.20;;;;;;;;;;5001070;28;20065;-88
2023/06/23 10:50:10;;;;;;;2.67;2.00;;;;;;;;;;5008672;28;20071;-87
2023/06/23 10:52:36;;;;;;;6.15;2.35;;;;;;;;;;5008099;28;20117;-87
2023/06/23 10:55:02;;;;;;;2.13;1.90;;;;;;;;;;5011626;28;20034;-89
2023/06/23 10:57:28;;;;;;;2.30;2.08;;;;;;;;;;5011472;28;20033;-87
2023/06/23 11:00:05;;;;;;;2.15;1.95;;;;;;;;;;4993980;28;20027;-87
2023/06/23 11:02:31;;;;;;;3.03;2.20;;;;;;;;;;4997907;28;20014;-87
2023/06/23 11:05:04;;;;;;;2.65;2.15;;;;;;;;;;5005221;28;20028;-86
2023/06/23 11:07:30;;;;;;;3.13;2.40;;;;;;;;;;4990739;28;20045;-87
2023/06/23 11:09:58;;;;;;;3.67;2.10;;;;;;;;;;5010279;28;20473;-86
2023/06/23 11:12:36;;;;;;;3.08;2.20;;;;;;;;;;5008019;28;20072;-88
2023/06/23 11:15:03;;;;;;;2.75;2.17;;;;;;;;;;5002426;28;20545;-87
2023/06/23 11:17:29;;;;;;;3.17;2.10;;;;;;;;;;4988300;28;20038;-86
2023/06/23 11:19:55;;;;;;;3.55;2.10;;;;;;;;;;4999434;28;20531;-88
2023/06/23 11:22:22;;;;;;;3.05;2.53;;;;;;;;;;5010600;28;20152;-88
2023/06/23 11:24:54;;;;;;;3.47;2.08;;;;;;;;;;5000147;28;20022;-88
2023/06/23 11:27:20;;;;;;;2.95;2.20;;;;;;;;;;4993891;28;20401;-90
2023/06/23 11:30:05;;;;;;;3.33;2.47;;;;;;;;;;4999130;28;20038;-90
2023/06/23 11:32:31;;;;;;;2.47;2.20;;;;;;;;;;5008236;28;20109;-88
2023/06/23 11:35:01;;;;;;;2.97;2.30;;;;;;;;;;5001798;28;20042;-89
2023/06/23 11:37:28;;;;;;;2.70;2.20;;;;;;;;;;5010728;28;20030;-88
2023/06/23 11:39:55;;;;;;;3.05;2.05;;;;;;;;;;5010416;28;20022;-89
2023/06/23 11:42:21;;;;;;;3.15;2.38;;;;;;;;;;5010076;28;20032;-87
2023/06/23 11:44:48;;;;;;;3.35;2.47;;;;;;;;;;5010115;28;20354;-88
2023/06/23 11:47:14;;;;;;;3.40;2.45;;;;;;;;;;4991342;28;20026;-89
2023/06/23 11:49:40;;;;;;;2.60;2.28;;;;;;;;;;4994818;28;20155;-87
2023/06/23 11:52:07;;;;;;;2.65;2.20;;;;;;;;;;4992875;28;20457;-88
2023/06/23 11:54:35;;;;;;;3.25;2.25;;;;;;;;;;5011506;28;20066;-89
2023/06/23 11:57:01;;;;;;;2.95;2.03;;;;;;;;;;5004274;28;20057;-88
2023/06/23 11:59:33;;;;;;;3.47;2.33;;;;;;;;;;5004114;28;20018;-90
2023/06/23 12:01:59;;;;;;;;;;;;;;;;;;4999657;28;20266;-89
2023/06/23 12:04:25;;;;;;;6.70;1.90;;;;;;;;;;5009217;28;20422;-87
2023/06/23 12:06:52;;;;;;;3.13;2.22;;;;;;;;;;4998579;28;20049;-87
2023/06/23 12:09:20;;;;;;;2.05;1.85;;;;;;;;;;5010240;28;20069;-91
2023/06/23 12:11:47;;;;;;;4.70;2.08;;;;;;;;;;5002672;28;20022;-88
2023/06/23 12:14:13;;;;;;;3.92;2.30;;;;;;;;;;5005394;28;20056;-90
2023/06/23 12:16:39;;;;;;;3.05;2.10;;;;;;;;;;5002043;28;20037;-89
2023/06/23 12:19:08;;;;;;;2.28;1.88;;;;;;;;;;5004904;28;20075;-88
2023/06/23 12:21:39;;;;;;;1.50;1.40;;;;;;;;;;5000543;28;20030;-87
2023/06/23 12:24:05;;;;;;;3.60;2.30;;;;;;;;;;4996820;28;20081;-87
2023/06/23 12:26:31;;;;;;;3.03;1.80;;;;;;;;;;5010094;28;20053;-87
2023/06/23 12:29:11;;;;;;;3.20;2.13;;;;;;;;;;5009631;28;20054;-88
2023/06/23 12:31:39;;;;;;;2.38;2.08;;;;;;;;;;5003087;28;20018;-88
2023/06/23 12:34:05;;;;;;;2.70;1.98;;;;;;;;;;4989798;28;20492;-86
2023/06/23 12:36:33;;;;;;;2.45;1.85;;;;;;;;;;5009878;28;20774;-87
2023/06/23 12:39:00;;;;;;;2.97;2.25;;;;;;;;;;5004723;28;20496;-89
2023/06/23 12:41:28;;;;;;;2.33;1.90;;;;;;;;;;4989407;28;20026;-87
2023/06/23 12:43:54;;;;;;;2.45;1.67;;;;;;;;;;5007101;28;20033;-87
2023/06/23 12:46:39;;;;;;;2.70;1.85;;;;;;;;;;5009475;28;20021;-86
2023/06/23 12:49:11;;;;;;;3.53;1.90;;;;;;;;;;4998462;28;20584;-87
2023/06/23 12:51:38;;;;;;;2.10;1.70;;;;;;;;;;5009092;28;20440;-87
2023/06/23 12:54:05;;;;;;;2.35;1.85;;;;;;;;;;5000264;28;20034;-85
2023/06/23 12:56:31;;;;;;;2.40;1.70;;;;;;;;;;5005790;28;20026;-84
2023/06/23 12:58:57;;;;;;;1.70;1.58;;;;;;;;;;5007048;28;20444;-85
2023/06/23 13:01:24;;;;;;;2.63;1.83;;;;;;;;;;5005357;28;20102;-86
2023/06/23 13:03:50;;;;;;;1.90;1.67;;;;;;;;;;4999057;28;20029;-87
2023/06/23 13:06:16;;;;;;;2.17;1.52;;;;;;;;;;5008422;28;20516;-84
2023/06/23 13:08:42;;;;;;;2.20;1.60;;;;;;;;;;5000911;28;20030;-88
2023/06/23 13:11:08;;;;;;;2.45;1.85;;;;;;;;;;5006352;28;20038;-85
2023/06/23 13:13:34;;;;;;;1.60;1.50;;;;;;;;;;5008526;28;20033;-85
2023/06/23 13:16:00;;;;;;;3.42;1.88;;;;;;;;;;5007864;28;20032;-87
2023/06/23 13:18:27;;;;;;;2.30;1.75;;;;;;;;;;5008222;28;20034;-86
2023/06/23 13:20:53;;;;;;;2.58;1.70;;;;;;;;;;4995856;28;20239;-85
2023/06/23 13:23:19;;;;;;;2.15;1.60;;;;;;;;;;5006417;28;20038;-85
2023/06/23 13:25:45;;;;;;;3.28;1.45;;;;;;;;;;4991528;28;20053;-85
2023/06/23 13:28:37;;;;;;;2.15;1.77;;;;;;;;;;4999251;28;20049;-86
2023/06/23 13:31:03;;;;;;;1.55;1.40;;;;;;;;;;5000867;28;20096;-85
2023/06/23 13:33:29;;;;;;;2.03;1.42;;;;;;;;;;4990978;28;20029;-89
2023/06/23 13:35:58;;;;;;;1.38;1.20;;;;;;;;;;4999872;28;20025;-88
2023/06/23 13:38:24;;;;;;;1.70;1.40;;;;;;;;;;5012083;28;20030;-86
2023/06/23 13:40:50;;;;;;;1.45;1.20;;;;;;;;;;5011564;28;20065;-85
2023/06/23 13:43:18;;;;;;;1.75;1.38;;;;;;;;;;5006664;28;20034;-85
2023/06/23 13:45:44;;;;;;;1.80;1.60;;;;;;;;;;5012403;28;20022;-85
2023/06/23 13:48:10;;;;;;;3.42;1.35;;;;;;;;;;4998668;28;20026;-87
2023/06/23 13:50:36;;;;;;;2.25;1.42;;;;;;;;;;5004614;28;20080;-82
2023/06/23 13:53:02;;;;;;;1.35;1.20;;;;;;;;;;5001943;28;20093;-78
2023/06/23 13:55:28;;;;;;;2.30;1.48;;;;;;;;;;5001842;28;20440;-77
2023/06/23 13:57:54;;;;;;;1.63;1.23;;;;;;;;;;5006523;28;20080;-81
2023/06/23 14:00:21;;;;;;;2.22;1.52;;;;;;;;;;5001301;28;20026;-80
2023/06/23 14:02:48;;;;;;;1.73;1.23;;;;;;;;;;5006189;28;20076;-82
2023/06/23 14:05:14;;;;;;;1.77;1.30;;;;;;;;;;5006969;28;20038;-80
2023/06/23 14:07:40;;;;;;;3.00;1.73;;;;;;;;;;5005837;28;20113;-79
2023/06/23 14:10:07;;;;;;;2.08;1.80;;;;;;;;;;5014347;28;20061;-81
2023/06/23 14:12:33;;;;;;;1.70;1.20;;;;;;;;;;5009781;28;20073;-81
2023/06/23 14:14:59;;;;;;;3.00;2.05;;;;;;;;;;5011674;28;20100;-81
2023/06/23 14:17:26;;;;;;;1.75;1.58;;;;;;;;;;4989940;28;20033;-80
2023/06/23 14:19:52;;;;;;;1.98;1.50;;;;;;;;;;5009766;28;20393;-77
2023/06/23 14:22:18;;;;;;;2.30;1.27;;;;;;;;;;4994171;28;20465;-76
2023/06/23 14:24:44;;;;;;;1.60;1.50;;;;;;;;;;5010069;28;20018;-77
2023/06/23 14:27:10;;;;;;;2.05;1.10;;;;;;;;;;4995353;28;20049;-77
2023/06/23 14:29:36;;;;;;;2.17;1.45;;;;;;;;;;4997730;28;20018;-78
2023/06/23 14:32:02;;;;;;;2.38;1.17;;;;;;;;;;4990936;28;20026;-77
2023/06/23 14:34:29;;;;;;;1.60;1.20;;;;;;;;;;5003869;28;20041;-78
2023/06/23 14:36:55;;;;;;;1.77;1.20;;;;;;;;;;4984296;28;20084;-78
2023/06/23 14:39:21;;;;;;;1.65;1.40;;;;;;;;;;5009346;28;20485;-77
2023/06/23 14:41:47;;;;;;;1.15;1.00;;;;;;;;;;5000953;28;20050;-75
2023/06/23 14:44:13;;;;;;;1.38;1.20;;;;;;;;;;4966562;28;20385;-78
2023/06/23 14:46:45;;;;;;;2.30;1.17;;;;;;;;;;5006592;28;20067;-78